createdAt,value
2023-01-13T00:00:48.450Z,10.93
2023-01-13T00:05:50.237Z,9.52
2023-01-13T00:10:51.988Z,7.07
2023-01-13T00:15:58.767Z,7.70
2023-01-13T00:21:12.579Z,12.43
2023-01-13T00:26:20.448Z,6.50
2023-01-13T00:31:22.290Z,6.07
2023-01-13T00:36:24.090Z,12.27
2023-01-13T00:41:26.858Z,18.63
2023-01-13T00:46:28.693Z,25.75
2023-01-13T00:51:30.500Z,18.83
2023-01-13T00:56:40.271Z,20.73
2023-01-13T01:01:43.026Z,20.88
2023-01-13T01:06:44.940Z,19.38
2023-01-13T01:11:46.748Z,16.20
2023-01-13T01:16:48.502Z,19.70
2023-01-13T01:21:50.339Z,17.73
2023-01-13T01:26:52.164Z,12.73
2023-01-13T01:31:54.049Z,16.88
2023-01-13T01:36:55.793Z,15.93
2023-01-13T01:42:16.022Z,23.83
2023-01-13T01:47:19.075Z,9.25
2023-01-13T01:52:32.140Z,9.02
2023-01-13T01:57:46.896Z,13.45
2023-01-13T02:02:50.769Z,8.10
2023-01-13T02:07:54.496Z,11.98
2023-01-13T02:13:04.822Z,7.68
2023-01-13T02:18:30.768Z,10.95
2023-01-13T02:24:29.037Z,11.70
2023-01-13T02:30:08.545Z,19.25
2023-01-13T02:35:28.084Z,9.93
2023-01-13T02:40:35.777Z,14.43
2023-01-13T02:45:43.618Z,13.60
2023-01-13T02:50:56.238Z,13.25
2023-01-13T02:56:00.166Z,12.95
2023-01-13T03:01:02.207Z,15.98
2023-01-13T03:06:36.823Z,10.85
2023-01-13T03:12:10.498Z,12.75
2023-01-13T03:17:18.482Z,17.77
2023-01-13T03:22:38.489Z,17.83
2023-01-13T03:28:08.642Z,12.50
2023-01-13T03:33:16.970Z,14.10
2023-01-13T03:38:28.728Z,17.27
2023-01-13T03:44:00.079Z,11.18
2023-01-13T03:49:04.555Z,12.57
2023-01-13T03:54:11.468Z,14.00
2023-01-13T03:59:18.763Z,10.90
2023-01-13T04:04:29.645Z,10.10
2023-01-13T04:14:39.872Z,12.65
2023-01-13T04:19:41.631Z,8.48
2023-01-13T04:24:43.411Z,7.20
2023-01-13T04:29:46.344Z,10.60
2023-01-13T04:34:48.173Z,14.15
2023-01-13T04:39:49.974Z,9.60
2023-01-13T04:44:51.805Z,8.52
2023-01-13T04:49:53.570Z,12.85
2023-01-13T04:54:55.359Z,11.23
2023-01-13T04:59:57.124Z,9.82
2023-01-13T05:04:59.259Z,8.45
2023-01-13T05:10:01.149Z,7.45
2023-01-13T05:15:21.967Z,14.57
2023-01-13T05:25:27.355Z,9.90
2023-01-13T05:30:33.642Z,13.48
2023-01-13T05:35:37.959Z,9.48
2023-01-13T05:40:59.704Z,9.68
2023-01-13T05:46:09.890Z,9.60
2023-01-13T05:51:13.118Z,13.50
2023-01-13T05:56:17.366Z,12.40
2023-01-13T06:01:19.185Z,12.35
2023-01-13T06:06:21.018Z,13.02
2023-01-13T06:11:22.797Z,8.23
2023-01-13T06:16:24.625Z,13.80
2023-01-13T06:21:26.629Z,11.18
2023-01-13T06:26:31.913Z,4.05
2023-01-13T06:31:38.588Z,11.85
2023-01-13T06:36:52.257Z,18.85
2023-01-13T06:42:13.558Z,20.15
2023-01-13T06:47:15.374Z,9.50
2023-01-13T06:52:17.233Z,9.70
2023-01-13T06:57:19.011Z,15.10
2023-01-13T07:02:21.012Z,19.35
2023-01-13T07:07:23.006Z,27.13
2023-01-13T07:12:24.940Z,26.80
2023-01-13T07:17:26.755Z,12.43
2023-01-13T07:22:28.610Z,19.30
2023-01-13T07:27:30.443Z,19.13
2023-01-13T07:32:33.692Z,18.08
2023-01-13T07:37:37.736Z,9.98
2023-01-13T07:42:58.317Z,20.80
2023-01-13T07:48:00.104Z,15.15
2023-01-13T07:53:02.083Z,13.68
2023-01-13T07:58:03.964Z,25.58
2023-01-13T08:03:06.182Z,16.73
2023-01-13T08:08:08.378Z,14.35
2023-01-13T08:13:22.860Z,20.75
2023-01-13T08:18:24.837Z,23.55
2023-01-13T08:23:26.705Z,23.55
2023-01-13T08:28:28.628Z,27.73
2023-01-13T08:33:30.893Z,24.02
2023-01-13T08:38:34.502Z,9.68
2023-01-13T08:43:36.415Z,13.20
2023-01-13T08:48:38.338Z,26.63
2023-01-13T08:53:40.221Z,16.38
2023-01-13T08:58:42.040Z,25.00
2023-01-13T09:03:44.122Z,17.40
2023-01-13T09:08:46.210Z,20.55
2023-01-13T09:13:48.055Z,22.98
2023-01-13T09:18:49.840Z,13.90
2023-01-13T09:23:51.639Z,16.35
2023-01-13T09:28:53.436Z,29.10
2023-01-13T09:34:13.845Z,20.00
2023-01-13T09:39:16.445Z,17.30
2023-01-13T09:44:25.882Z,18.05
2023-01-13T09:49:37.762Z,20.35
2023-01-13T09:54:45.285Z,21.77
2023-01-13T09:59:48.112Z,13.73
2023-01-13T10:05:03.356Z,15.48
2023-01-13T10:10:12.510Z,25.27
2023-01-13T10:15:24.206Z,17.23
2023-01-13T10:20:45.219Z,19.77
2023-01-13T10:26:02.120Z,22.15
2023-01-13T10:31:15.083Z,14.98
2023-01-13T10:36:21.541Z,20.00
2023-01-13T10:41:27.904Z,15.40
2023-01-13T10:46:31.882Z,15.27
2023-01-13T10:51:39.868Z,20.65
2023-01-13T10:56:44.709Z,18.00
2023-01-13T11:01:53.949Z,19.58
2023-01-13T11:06:56.717Z,17.77
2023-01-13T11:12:00.167Z,19.88
2023-01-13T11:17:25.891Z,17.08
2023-01-13T11:22:37.475Z,18.95
2023-01-13T11:27:56.294Z,13.00
2023-01-13T11:33:10.788Z,16.90
2023-01-13T11:38:49.990Z,17.67
2023-01-13T11:44:17.162Z,21.85
2023-01-13T11:49:38.466Z,21.58
2023-01-13T11:55:15.917Z,17.83
2023-01-13T12:00:22.330Z,22.30
2023-01-13T12:05:38.177Z,14.73
2023-01-13T12:10:49.001Z,20.90
2023-01-13T12:21:23.187Z,19.65
2023-01-13T12:26:25.114Z,19.50
2023-01-13T12:31:28.478Z,21.30
2023-01-13T12:36:52.316Z,26.70
2023-01-13T12:42:26.701Z,18.45
2023-01-13T12:47:40.185Z,15.63
2023-01-13T12:52:45.706Z,12.60
2023-01-13T12:58:05.574Z,18.00
2023-01-13T13:03:19.652Z,21.35
2023-01-13T13:08:35.506Z,22.13
2023-01-13T13:13:47.300Z,11.80
2023-01-13T13:18:50.335Z,14.90
2023-01-13T13:23:55.181Z,20.85
2023-01-13T13:29:29.685Z,19.55
2023-01-13T13:34:55.680Z,16.95
2023-01-13T13:40:16.096Z,14.75
2023-01-13T13:45:40.065Z,19.25
2023-01-13T13:50:49.168Z,21.25
2023-01-13T13:56:02.407Z,14.88
2023-01-13T14:01:05.382Z,19.90
2023-01-13T14:06:07.907Z,12.23
2023-01-13T14:11:32.347Z,19.08
2023-01-13T14:16:36.279Z,20.58
2023-01-13T14:21:38.755Z,23.02
2023-01-13T14:26:40.687Z,21.45
2023-01-13T14:31:43.542Z,17.50
2023-01-13T14:36:50.951Z,13.18
2023-01-13T14:41:53.614Z,14.48
2023-01-13T14:46:58.340Z,16.30
2023-01-13T14:52:16.229Z,14.38
2023-01-13T14:57:25.943Z,9.52
2023-01-13T15:02:31.080Z,16.92
2023-01-13T15:07:33.392Z,15.45
2023-01-13T15:12:41.451Z,13.80
2023-01-13T15:17:43.393Z,15.63
2023-01-13T15:22:45.990Z,15.68
2023-01-13T15:27:51.050Z,11.75
2023-01-13T15:32:55.193Z,7.45
2023-01-13T15:37:57.786Z,12.00
2023-01-13T15:43:18.527Z,16.83
2023-01-13T15:48:21.769Z,18.17
2023-01-13T15:53:23.788Z,8.68
2023-01-13T15:58:28.502Z,13.57
2023-01-13T16:03:30.618Z,9.40
2023-01-13T16:08:34.744Z,14.38
2023-01-13T16:13:37.121Z,17.63
2023-01-13T16:18:38.946Z,13.15
2023-01-13T16:23:41.321Z,14.40
2023-01-13T16:28:43.090Z,7.65
2023-01-13T16:33:45.036Z,15.90
2023-01-13T16:38:47.986Z,12.48
2023-01-13T16:43:49.817Z,12.52
2023-01-13T16:48:56.606Z,15.68
2023-01-13T16:53:58.375Z,23.02
2023-01-13T16:59:08.337Z,15.05
2023-01-13T17:04:16.622Z,19.80
2023-01-13T17:09:20.946Z,20.95
2023-01-13T17:14:23.634Z,15.52
2023-01-13T17:19:25.940Z,21.77
2023-01-13T17:24:30.932Z,14.82
2023-01-13T17:29:32.958Z,21.10
2023-01-13T17:34:34.758Z,25.10
2023-01-13T17:39:36.625Z,24.63
2023-01-13T17:44:39.409Z,31.42
2023-01-13T17:49:41.172Z,19.67
2023-01-13T17:54:43.840Z,27.88
2023-01-13T17:59:47.942Z,21.60
2023-01-13T18:04:49.741Z,22.48
2023-01-13T18:09:51.650Z,27.55
2023-01-13T18:14:53.472Z,22.40
2023-01-13T18:20:13.891Z,21.00
2023-01-13T18:25:34.538Z,14.80
2023-01-13T18:30:36.782Z,18.70
2023-01-13T18:35:39.862Z,19.50
2023-01-13T18:40:45.482Z,20.15
2023-01-13T18:45:51.636Z,24.30
2023-01-13T18:50:53.974Z,29.20
2023-01-13T18:55:55.934Z,20.98
2023-01-13T19:01:05.287Z,28.52
2023-01-13T19:06:11.793Z,23.65
2023-01-13T19:11:14.059Z,28.17
2023-01-13T19:16:17.888Z,20.88
2023-01-13T19:21:20.782Z,26.58
2023-01-13T19:26:22.612Z,31.58
2023-01-13T19:31:24.482Z,24.60
2023-01-13T19:36:27.067Z,29.92
2023-01-13T19:41:47.416Z,34.65
2023-01-13T19:46:49.422Z,20.27
2023-01-13T19:51:51.487Z,27.17
2023-01-13T19:56:53.582Z,28.27
2023-01-13T20:01:57.273Z,24.95
2023-01-13T20:06:59.974Z,35.22
2023-01-13T20:12:09.249Z,33.70
2023-01-13T20:17:16.179Z,37.80
2023-01-13T20:22:18.023Z,27.25
2023-01-13T20:27:19.766Z,27.90
2023-01-13T20:32:21.656Z,30.02
2023-01-13T20:37:23.577Z,39.17
2023-01-13T20:42:51.755Z,44.42
2023-01-13T20:47:54.491Z,21.40
2023-01-13T20:52:56.415Z,25.17
2023-01-13T20:57:58.159Z,26.35
2023-01-13T21:03:00.018Z,36.10
2023-01-13T21:08:01.845Z,21.92
2023-01-13T21:13:22.205Z,20.92
2023-01-13T21:18:42.786Z,30.27
2023-01-13T21:23:47.163Z,14.85
2023-01-13T21:28:50.065Z,25.13
2023-01-13T21:33:59.622Z,33.70
2023-01-13T21:39:01.521Z,27.13
2023-01-13T21:44:21.869Z,24.90
2023-01-13T21:49:23.814Z,21.50
2023-01-13T21:54:25.844Z,35.35
2023-01-13T21:59:27.652Z,26.08
2023-01-13T22:04:30.490Z,23.15
2023-01-13T22:09:32.370Z,28.27
2023-01-13T22:14:35.355Z,24.70
2023-01-13T22:19:39.443Z,23.17
2023-01-13T22:24:46.351Z,25.40
2023-01-13T22:29:49.609Z,23.38
2023-01-13T22:34:51.495Z,25.63
2023-01-13T22:39:53.284Z,28.17
2023-01-13T22:44:55.157Z,29.73
2023-01-13T22:49:56.964Z,26.20
2023-01-13T22:55:00.852Z,31.13
2023-01-13T23:00:03.444Z,21.85
2023-01-13T23:05:05.711Z,23.50
2023-01-13T23:10:07.830Z,28.20
2023-01-13T23:15:10.027Z,31.67
2023-01-13T23:20:12.092Z,20.60
2023-01-13T23:25:13.975Z,21.45
2023-01-13T23:30:16.344Z,35.55
2023-01-13T23:35:18.150Z,25.08
2023-01-13T23:40:19.939Z,31.40
2023-01-13T23:45:22.091Z,20.35
2023-01-13T23:50:25.106Z,37.58
2023-01-13T23:55:27.096Z,34.72
